Time;durP1;ratioP1;P1;durP2;ratioP2;P2;SDS_P1;SDS_P2;PMS_P1;PMS_P2;Temp;Humidity;BMP_temperature;BMP_pressure;BME280_temperature;BME280_humidity;BME280_pressure;Samples;Min_cycle;Max_cycle;Signal;HPM_P1;HPM_P2
2021/12/29 00:01:57;;;;;;;10.60;3.90;;;7.30;99.90;;;8.20;100.00;96597.84;5142708;28;20206;-64
2021/12/29 00:04:31;;;;;;;9.53;3.40;;;7.30;99.90;;;8.22;100.00;96599.66;5145159;28;20340;-63
2021/12/29 00:07:05;;;;;;;8.67;3.63;;;7.40;99.90;;;8.27;100.00;96610.94;5142371;28;20634;-62
2021/12/29 00:09:40;;;;;;;9.20;3.80;;;7.40;99.90;;;8.26;100.00;96614.25;5147620;28;20226;-65
2021/12/29 00:12:14;;;;;;;9.60;3.30;;;7.40;99.90;;;8.27;100.00;96616.00;5137299;28;20219;-65
2021/12/29 00:14:47;;;;;;;10.27;3.70;;;7.40;99.90;;;8.13;100.00;96625.56;5139998;28;20199;-65
2021/12/29 00:17:21;;;;;;;6.17;3.37;;;7.40;99.90;;;8.10;100.00;96622.88;5144193;28;20208;-65
2021/12/29 00:19:55;;;;;;;10.33;3.63;;;7.30;99.90;;;8.07;100.00;96630.38;5142867;28;20210;-65
2021/12/29 00:22:28;;;;;;;10.03;3.63;;;7.30;99.90;;;8.15;100.00;96624.75;5137802;28;20693;-65
2021/12/29 00:25:01;;;;;;;7.93;3.07;;;7.30;99.90;;;8.23;100.00;96628.53;5138150;28;20703;-65
2021/12/29 00:27:35;;;;;;;8.63;3.20;;;7.40;99.90;;;8.17;100.00;96633.31;5140081;28;20208;-64
2021/12/29 00:30:12;;;;;;;8.43;3.63;;;7.30;99.90;;;8.10;100.00;96635.59;5142466;28;20228;-65
2021/12/29 00:32:45;;;;;;;9.63;3.37;;;7.30;99.90;;;8.13;100.00;96651.00;5146651;28;20202;-65
2021/12/29 00:35:19;;;;;;;9.63;3.63;;;7.30;99.90;;;8.18;100.00;96652.88;5141767;28;20592;-66
2021/12/29 00:37:52;;;;;;;7.77;3.27;;;7.30;99.90;;;8.21;100.00;96656.47;5141945;28;20195;-63
2021/12/29 00:40:26;;;;;;;9.20;3.53;;;7.30;99.90;;;8.23;100.00;96665.03;5144585;28;20202;-64
2021/12/29 00:42:59;;;;;;;8.60;3.30;;;7.30;99.90;;;8.28;100.00;96672.88;5142996;28;20207;-65
2021/12/29 00:45:34;;;;;;;7.40;3.50;;;7.40;99.90;;;8.25;100.00;96667.66;5142575;28;20615;-65
2021/12/29 00:48:13;;;;;;;10.47;3.73;;;7.30;99.90;;;8.23;100.00;96679.41;5140620;28;20422;-64
2021/12/29 00:50:47;;;;;;;10.23;3.40;;;7.30;99.90;;;8.17;100.00;96686.78;5145297;28;20586;-65
2021/12/29 00:53:20;;;;;;;7.83;3.40;;;7.30;99.90;;;8.20;100.00;96684.38;5142638;28;20561;-65
2021/12/29 00:55:53;;;;;;;6.60;3.00;;;7.30;99.90;;;8.15;100.00;96696.88;5142504;28;20219;-64
2021/12/29 00:58:30;;;;;;;6.50;3.43;;;7.30;99.90;;;8.09;100.00;96701.66;5142954;28;20200;-64
2021/12/29 01:01:05;;;;;;;10.27;3.73;;;7.20;99.90;;;8.06;100.00;96709.16;5139888;28;20200;-65
2021/12/29 01:03:38;;;;;;;8.70;3.77;;;7.30;99.90;;;8.01;100.00;96708.97;5146663;28;20210;-63
2021/12/29 01:06:13;;;;;;;5.87;3.13;;;7.20;99.90;;;8.13;100.00;96718.84;5144023;28;20259;-65
2021/12/29 01:08:46;;;;;;;8.77;3.20;;;7.30;99.90;;;8.12;100.00;96714.53;5145316;28;20239;-66
2021/12/29 01:11:19;;;;;;;10.77;3.20;;;7.30;99.90;;;8.16;100.00;96719.00;5139919;28;20228;-65
2021/12/29 01:13:52;;;;;;;8.27;3.05;;;7.20;99.90;;;8.09;100.00;96725.44;5140231;28;20593;-66
2021/12/29 01:16:37;;;;;;;8.53;3.00;;;7.30;99.90;;;8.20;100.00;96725.09;5142465;28;20215;-65
2021/12/29 01:19:15;;;;;;;5.47;2.60;;;7.30;99.90;;;8.19;100.00;96731.00;5145846;28;20672;-66
2021/12/29 01:21:54;;;;;;;7.37;3.13;;;7.40;99.90;;;8.23;100.00;96736.28;5140991;28;20207;-63
2021/12/29 01:24:30;;;;;;;4.10;3.00;;;7.30;99.90;;;8.23;100.00;96746.47;5141952;28;20207;-64
2021/12/29 01:27:04;;;;;;;7.70;3.40;;;7.30;99.90;;;8.20;100.00;96750.56;5141555;28;20686;-66
2021/12/29 01:29:37;;;;;;;7.17;3.00;;;7.30;99.90;;;8.20;100.00;96751.41;5141655;28;20234;-65
2021/12/29 01:32:10;;;;;;;6.47;2.73;;;7.30;99.90;;;8.25;100.00;96756.75;5140111;28;20200;-63
2021/12/29 01:34:43;;;;;;;7.87;2.77;;;7.30;99.90;;;8.20;100.00;96758.19;5143556;28;20206;-65
2021/12/29 01:37:18;;;;;;;6.67;3.10;;;7.30;99.90;;;8.33;100.00;96768.16;5139052;28;20572;-61
2021/12/29 01:39:51;;;;;;;6.23;3.07;;;7.40;99.90;;;8.22;100.00;96775.28;5144702;28;20666;-65
2021/12/29 01:42:25;;;;;;;6.17;3.07;;;7.30;99.90;;;8.26;100.00;96776.28;5135572;28;20204;-65
2021/12/29 01:44:58;;;;;;;8.30;2.80;;;7.40;99.90;;;8.21;100.00;96776.09;5140047;28;20846;-66
2021/12/29 01:47:33;;;;;;;5.30;2.47;;;7.40;99.90;;;8.27;100.00;96778.03;5142923;28;20287;-65
2021/12/29 01:50:10;;;;;;;5.17;2.33;;;7.40;99.90;;;8.31;100.00;96779.94;5140456;28;20224;-65
2021/12/29 01:52:53;;;;;;;5.33;2.50;;;7.40;99.90;;;8.25;100.00;96789.84;5140137;28;20294;-65
2021/12/29 01:55:27;;;;;;;6.93;3.07;;;7.40;99.90;;;8.25;100.00;96788.16;5140614;28;20224;-64
2021/12/29 01:58:00;;;;;;;5.53;2.40;;;7.30;99.90;;;8.22;100.00;96792.22;5140755;28;20243;-65
2021/12/29 02:00:38;;;;;;;5.60;2.80;;;7.30;99.90;;;8.20;100.00;96796.38;5137160;28;20204;-64
2021/12/29 02:03:11;;;;;;;5.93;2.50;;;7.30;99.90;;;8.31;100.00;96805.41;5139297;28;20231;-65
2021/12/29 02:05:45;;;;;;;3.70;2.40;;;7.30;99.90;;;8.31;100.00;96810.50;5139648;28;20225;-65
2021/12/29 02:08:22;;;;;;;4.33;2.37;;;7.30;99.90;;;8.29;100.00;96812.06;5142225;28;20210;-64
2021/12/29 02:10:57;;;;;;;8.50;2.83;;;7.40;99.90;;;8.33;100.00;96829.25;5139106;28;20228;-66
2021/12/29 02:13:30;;;;;;;6.40;2.50;;;7.40;99.90;;;8.19;100.00;96830.25;5141095;28;20214;-66
2021/12/29 02:16:04;;;;;;;7.17;2.33;;;7.30;99.90;;;8.27;100.00;96834.03;5136710;28;20235;-65
2021/12/29 02:18:39;;;;;;;5.57;2.80;;;7.40;99.90;;;8.26;100.00;96839.94;5138936;28;20214;-65
2021/12/29 02:21:20;;;;;;;5.70;2.43;;;7.30;99.90;;;8.23;100.00;96834.69;5139787;28;20226;-66
2021/12/29 02:24:16;;;;;;;5.50;2.73;;;7.30;99.90;;;8.23;100.00;96844.88;5137018;28;20668;-66
2021/12/29 02:26:51;;;;;;;5.50;2.60;;;7.30;99.90;;;8.15;100.00;96835.97;5136756;28;20216;-65
2021/12/29 02:29:25;;;;;;;3.70;2.37;;;7.30;99.90;;;8.20;100.00;96832.00;5136227;28;20195;-65
2021/12/29 02:31:59;;;;;;;4.83;2.50;;;7.30;99.90;;;8.10;100.00;96851.03;5136044;28;20214;-65
2021/12/29 02:34:33;;;;;;;3.50;2.53;;;7.30;99.90;;;8.05;100.00;96853.34;5142146;28;20208;-65
2021/12/29 02:37:08;;;;;;;6.00;2.37;;;7.30;99.90;;;8.06;100.00;96860.16;5138468;28;20196;-64
2021/12/29 02:39:41;;;;;;;4.63;2.50;;;7.30;99.90;;;8.11;100.00;96873.13;5138173;28;20195;-65
2021/12/29 02:42:15;;;;;;;6.13;2.58;;;7.30;99.90;;;8.13;100.00;96879.19;5139341;28;20214;-65
2021/12/29 02:44:49;;;;;;;2.70;2.30;;;7.30;99.90;;;8.12;100.00;96880.81;5138453;28;20217;-63
2021/12/29 02:47:22;;;;;;;5.37;2.63;;;7.30;99.90;;;8.10;100.00;96886.66;5138732;28;20582;-63
2021/12/29 02:49:55;;;;;;;4.63;2.33;;;7.20;99.90;;;8.19;100.00;96870.97;5140928;28;20204;-65
2021/12/29 02:52:30;;;;;;;6.40;2.53;;;7.30;99.90;;;8.13;100.00;96885.16;5140975;28;20204;-65
2021/12/29 02:55:04;;;;;;;5.57;2.70;;;7.30;99.90;;;8.06;100.00;96890.69;5140183;28;20241;-64
2021/12/29 02:57:37;;;;;;;7.07;2.40;;;7.30;99.90;;;8.22;100.00;96888.94;5140771;28;20735;-64
2021/12/29 03:00:15;;;;;;;4.93;2.23;;;7.30;99.90;;;8.13;100.00;96897.88;5138407;28;20209;-65
2021/12/29 03:02:48;;;;;;;5.53;2.73;;;7.30;99.90;;;8.12;100.00;96893.56;5140975;28;20577;-64
2021/12/29 03:05:24;;;;;;;3.10;2.10;;;7.30;99.90;;;8.04;100.00;96902.50;5140077;28;20246;-65
2021/12/29 03:07:59;;;;;;;6.03;2.50;;;7.30;99.90;;;7.99;100.00;96903.06;5139172;28;20214;-65
2021/12/29 03:10:32;;;;;;;3.90;2.30;;;7.20;99.90;;;8.06;100.00;96911.06;5140839;28;20227;-63
2021/12/29 03:13:06;;;;;;;3.73;2.37;;;7.20;99.90;;;8.03;100.00;96926.16;5139017;28;20216;-65
2021/12/29 03:15:40;;;;;;;4.40;2.30;;;7.20;99.90;;;8.06;100.00;96928.88;5141646;28;20231;-65
2021/12/29 03:18:13;;;;;;;2.27;1.97;;;7.20;99.90;;;8.08;100.00;96940.03;5139221;28;20582;-64
2021/12/29 03:20:47;;;;;;;3.93;2.50;;;7.20;99.90;;;8.08;100.00;96944.25;5139074;28;20575;-64
2021/12/29 03:23:22;;;;;;;4.30;2.27;;;7.30;99.90;;;8.02;100.00;96949.88;5140618;28;20672;-64
2021/12/29 03:25:55;;;;;;;2.40;2.17;;;7.30;99.90;;;7.99;100.00;96948.84;5138978;28;20231;-64
2021/12/29 03:28:28;;;;;;;2.80;2.10;;;7.20;99.90;;;7.94;100.00;96948.59;5142568;28;20202;-64
2021/12/29 03:31:02;;;;;;;1.90;1.60;;;7.20;99.90;;;7.88;100.00;96933.03;5151430;28;20224;-64
2021/12/29 03:33:35;;;;;;;3.20;2.03;;;7.20;99.90;;;7.98;100.00;96945.41;5146637;28;20205;-65
2021/12/29 03:36:08;;;;;;;3.10;2.07;;;7.20;99.90;;;7.99;100.00;96939.56;5144843;28;20250;-63
2021/12/29 03:38:44;;;;;;;2.17;1.97;;;7.20;99.90;;;8.06;100.00;96946.69;5141663;28;20200;-63
2021/12/29 03:41:20;;;;;;;3.83;2.30;;;7.20;99.90;;;8.04;100.00;96955.94;5146078;28;20195;-62
2021/12/29 03:43:53;;;;;;;3.00;1.90;;;7.20;99.90;;;8.01;100.00;96963.41;5152356;28;20299;-65
2021/12/29 03:46:27;;;;;;;4.07;2.03;;;7.20;99.90;;;7.92;100.00;96960.38;5143721;28;20233;-66
2021/12/29 03:49:00;;;;;;;2.87;1.53;;;7.20;99.90;;;7.97;100.00;96968.25;5145832;28;20591;-63
2021/12/29 03:51:34;;;;;;;3.23;1.97;;;7.30;99.90;;;8.03;100.00;96987.25;5144487;28;20231;-65
2021/12/29 03:54:08;;;;;;;2.20;2.00;;;7.30;99.90;;;8.07;100.00;96981.53;5147609;28;20580;-64
2021/12/29 03:56:41;;;;;;;2.20;2.00;;;7.30;99.90;;;8.07;100.00;96984.09;5144228;28;20234;-64
2021/12/29 03:59:15;;;;;;;2.33;1.80;;;7.20;99.90;;;8.03;100.00;96981.28;5144633;28;20218;-64
2021/12/29 04:01:52;;;;;;;3.20;2.03;;;7.20;99.90;;;7.98;100.00;96975.06;5149171;28;20202;-63
2021/12/29 04:04:25;;;;;;;2.03;1.90;;;7.20;99.90;;;8.01;100.00;96967.59;5143248;28;20203;-66
2021/12/29 04:06:59;;;;;;;4.97;1.97;;;7.30;99.90;;;8.00;100.00;96964.19;5199061;23;20226;-63
2021/12/29 04:09:33;;;;;;;2.20;2.00;;;7.30;99.90;;;7.97;100.00;96976.75;5204009;28;20650;-63
2021/12/29 04:12:07;;;;;;;2.73;2.47;;;7.30;99.90;;;7.96;100.00;96980.09;5204927;28;20221;-63
2021/12/29 04:14:40;;;;;;;4.60;2.13;;;7.30;99.90;;;8.03;100.00;96969.44;5203998;28;20193;-65
2021/12/29 04:17:15;;;;;;;2.30;2.20;;;7.20;99.90;;;8.05;100.00;96980.56;5204099;28;20226;-63
2021/12/29 04:22:39;;;;;;;2.20;2.00;;;7.30;99.90;;;7.96;100.00;96995.38;5203609;28;20195;-63
2021/12/29 04:25:13;;;;;;;2.10;2.00;;;7.30;99.90;;;7.96;100.00;96992.81;5203684;28;20599;-62
2021/12/29 04:27:47;;;;;;;4.87;2.20;;;7.30;99.90;;;8.02;100.00;97007.53;5201741;28;20204;-62
2021/12/29 04:30:20;;;;;;;2.33;2.13;;;7.30;99.90;;;8.02;100.00;97005.88;5202917;28;20216;-61
2021/12/29 04:32:54;;;;;;;2.10;1.90;;;7.30;99.90;;;8.04;100.00;97017.00;5202814;28;20648;-63
2021/12/29 04:35:27;;;;;;;2.07;1.97;;;7.30;99.90;;;8.08;100.00;97013.81;5203284;28;20217;-69
2021/12/29 04:38:00;;;;;;;2.43;2.23;;;7.30;99.90;;;8.10;100.00;97019.88;5202149;28;20202;-63
2021/12/29 04:40:35;;;;;;;2.43;2.10;;;7.20;99.90;;;8.11;100.00;97019.06;5200831;28;20195;-66
2021/12/29 04:43:08;;;;;;;2.37;1.80;;;7.30;99.90;;;8.13;100.00;97030.22;5198629;28;20207;-63
2021/12/29 04:45:41;;;;;;;2.40;2.20;;;7.20;99.90;;;8.14;100.00;97020.91;5199239;28;20228;-63
2021/12/29 04:48:15;;;;;;;2.30;2.10;;;7.30;99.90;;;8.10;100.00;97029.19;5200066;28;20255;-64
2021/12/29 04:51:02;;;;;;;2.45;2.20;;;7.30;99.90;;;8.11;100.00;97029.25;5203409;28;20669;-63
2021/12/29 04:53:36;;;;;;;2.63;2.07;;;7.30;99.90;;;8.08;100.00;97031.63;5202871;28;20204;-63
2021/12/29 04:56:10;;;;;;;2.22;1.65;;;7.30;99.90;;;8.21;100.00;97035.72;5200254;28;20221;-63
2021/12/29 04:58:44;;;;;;;3.20;2.00;;;7.30;99.90;;;8.20;100.00;97040.72;5203654;28;20205;-63
2021/12/29 05:01:17;;;;;;;1.90;1.80;;;7.30;99.90;;;8.24;100.00;97043.50;5202896;28;20300;-64
2021/12/29 05:03:54;;;;;;;2.70;2.00;;;7.30;99.90;;;8.17;100.00;97060.91;5203426;28;20205;-63
2021/12/29 05:09:18;;;;;;;2.00;1.90;;;7.40;99.90;;;8.26;100.00;97057.16;5202273;28;20210;-63
2021/12/29 05:11:53;;;;;;;2.33;1.70;;;7.30;99.90;;;8.29;100.00;97051.38;5202160;28;20226;-65
2021/12/29 05:14:26;;;;;;;1.40;1.40;;;7.40;99.90;;;8.26;100.00;97056.31;5202446;28;20198;-64
2021/12/29 05:16:59;;;;;;;2.30;2.00;;;7.40;99.90;;;8.33;100.00;97053.31;5203194;28;20222;-64
2021/12/29 05:19:33;;;;;;;1.80;1.70;;;7.40;99.90;;;8.30;100.00;97074.38;5202152;28;20654;-64
2021/12/29 05:22:07;;;;;;;2.13;1.80;;;7.40;99.90;;;8.38;100.00;97077.31;5202468;28;20292;-64
2021/12/29 05:24:40;;;;;;;1.70;1.63;;;7.40;99.90;;;8.45;100.00;97074.34;5202716;28;20228;-65
2021/12/29 05:27:14;;;;;;;1.83;1.80;;;7.50;99.90;;;8.51;100.00;97077.19;5201107;28;20222;-66
2021/12/29 05:29:48;;;;;;;2.00;1.90;;;7.50;99.90;;;8.47;100.00;97075.31;5199571;28;20577;-64
2021/12/29 05:32:21;;;;;;;1.60;1.50;;;7.50;99.90;;;8.50;100.00;97078.00;5202563;28;20218;-64
2021/12/29 05:34:54;;;;;;;1.47;1.37;;;7.60;99.90;;;8.48;100.00;97078.72;5202616;28;20285;-65
2021/12/29 05:37:27;;;;;;;1.70;1.70;;;7.60;99.90;;;8.51;100.00;97077.19;5201264;28;20202;-65
2021/12/29 05:40:00;;;;;;;1.58;1.58;;;7.50;99.90;;;8.42;100.00;97079.28;5202407;28;20668;-64
2021/12/29 05:42:35;;;;;;;1.42;1.42;;;7.50;99.90;;;8.35;100.00;97089.88;5201843;28;20595;-67
2021/12/29 05:45:12;;;;;;;1.63;1.63;;;7.50;99.90;;;8.27;100.00;97094.59;5202234;28;20204;-65
2021/12/29 05:47:47;;;;;;;1.70;1.60;;;7.50;99.90;;;8.39;100.00;97089.31;5202796;28;20209;-65
2021/12/29 05:50:24;;;;;;;2.57;2.03;;;7.50;99.90;;;8.30;100.00;97091.34;5201586;28;20201;-64
2021/12/29 05:52:57;;;;;;;1.50;1.50;;;7.50;99.90;;;8.27;100.00;97099.69;5200839;28;20217;-63
2021/12/29 05:55:31;;;;;;;2.30;2.05;;;7.40;99.90;;;8.36;100.00;97104.38;5199700;28;20735;-65
2021/12/29 05:58:05;;;;;;;2.13;2.03;;;7.50;99.90;;;8.36;100.00;97114.56;5199275;28;20221;-62
2021/12/29 06:00:39;;;;;;;2.15;1.83;;;7.50;99.90;;;8.24;100.00;97126.63;5198396;28;20197;-65
2021/12/29 06:03:13;;;;;;;2.00;1.90;;;7.40;99.90;;;8.30;100.00;97121.88;5198834;28;20245;-64
2021/12/29 06:05:46;;;;;;;1.73;1.73;;;7.40;99.90;;;8.27;100.00;97139.50;5201911;28;20248;-63
2021/12/29 06:08:19;;;;;;;1.80;1.70;;;7.40;99.90;;;8.14;100.00;97137.97;5199510;28;20206;-64
2021/12/29 06:10:52;;;;;;;2.17;2.08;;;7.40;99.90;;;8.27;100.00;97131.88;5201363;28;20194;-64
2021/12/29 06:13:27;;;;;;;1.77;1.67;;;7.40;99.90;;;8.28;100.00;97137.06;5201306;28;20229;-63
2021/12/29 06:16:00;;;;;;;1.80;1.70;;;7.40;99.90;;;8.18;100.00;97144.09;5202262;28;20232;-63
2021/12/29 06:18:33;;;;;;;2.20;2.10;;;7.40;99.90;;;8.03;100.00;97146.69;5200522;28;20202;-64
2021/12/29 06:21:06;;;;;;;1.90;1.80;;;7.40;99.90;;;7.97;100.00;97154.88;5201678;28;20198;-63
2021/12/29 06:23:39;;;;;;;2.27;2.03;;;7.40;99.90;;;7.97;100.00;97154.00;5200147;28;20217;-64
2021/12/29 06:26:13;;;;;;;1.90;1.80;;;7.40;99.90;;;7.98;100.00;97151.53;5199534;28;20239;-64
2021/12/29 06:28:48;;;;;;;1.63;1.53;;;7.40;99.90;;;7.98;100.00;97150.66;5201752;28;20201;-63
2021/12/29 06:31:23;;;;;;;1.97;1.90;;;7.40;99.90;;;8.01;100.00;97146.63;5200559;28;20204;-64
2021/12/29 06:33:56;;;;;;;2.20;2.10;;;7.40;99.90;;;8.07;100.00;97146.09;5202153;28;20227;-63
2021/12/29 06:36:29;;;;;;;2.23;2.03;;;7.40;99.90;;;8.14;100.00;97150.72;5199645;28;20221;-63
2021/12/29 06:39:02;;;;;;;2.07;1.97;;;7.40;99.90;;;8.13;100.00;97152.38;5204202;28;20197;-63
2021/12/29 06:41:35;;;;;;;2.57;2.37;;;7.40;99.90;;;8.12;100.00;97140.44;5202357;28;20201;-63
2021/12/29 06:44:10;;;;;;;2.30;1.75;;;7.40;99.90;;;8.09;100.00;97147.91;5205276;28;20242;-62
2021/12/29 06:46:43;;;;;;;4.00;2.47;;;7.40;99.90;;;8.09;100.00;97144.47;5202278;28;20730;-65
2021/12/29 06:49:16;;;;;;;2.25;2.08;;;7.40;99.90;;;8.09;100.00;97145.34;5202880;28;20297;-65
2021/12/29 06:51:50;;;;;;;3.60;1.98;;;7.40;99.90;;;8.09;100.00;97153.00;5201896;28;20251;-62
2021/12/29 06:54:23;;;;;;;3.03;2.17;;;7.50;99.90;;;8.07;100.00;97162.22;5199612;28;20564;-62
2021/12/29 06:56:56;;;;;;;3.55;2.40;;;7.40;99.90;;;8.06;100.00;97157.03;5202436;28;20657;-62
2021/12/29 06:59:31;;;;;;;3.45;2.67;;;7.50;99.90;;;8.05;100.00;97168.91;5201520;28;20202;-62
2021/12/29 07:02:04;;;;;;;3.63;2.60;;;7.40;99.90;;;7.99;100.00;97171.09;5200529;28;20200;-64
2021/12/29 07:04:38;;;;;;;4.27;2.70;;;7.40;99.90;;;8.00;100.00;97185.56;5199491;28;20662;-62
2021/12/29 07:07:12;;;;;;;4.37;2.53;;;7.40;99.90;;;8.03;100.00;97185.75;5199004;28;20611;-62
2021/12/29 07:09:45;;;;;;;2.77;2.50;;;7.40;99.90;;;8.04;100.00;97192.59;5200957;28;20198;-63
2021/12/29 07:12:19;;;;;;;2.60;2.30;;;7.40;99.90;;;8.08;100.00;97194.50;5198653;28;20680;-66
2021/12/29 07:14:54;;;;;;;6.67;2.70;;;7.40;99.90;;;8.11;100.00;97199.78;5197423;28;20201;-61
2021/12/29 07:17:27;;;;;;;3.07;2.60;;;7.40;99.90;;;8.10;100.00;97192.94;5196109;28;20205;-66
2021/12/29 07:20:00;;;;;;;7.68;2.78;;;7.50;99.90;;;8.03;100.00;97216.28;5197928;28;20198;-62
2021/12/29 07:22:33;;;;;;;3.00;2.40;;;7.40;99.90;;;8.07;100.00;97233.50;5204252;28;20204;-63
2021/12/29 07:25:07;;;;;;;4.17;3.00;;;7.40;99.90;;;8.04;100.00;97225.69;5203969;28;20204;-63
2021/12/29 07:27:40;;;;;;;3.97;2.87;;;7.40;99.90;;;8.07;100.00;97235.16;5202789;28;20202;-64
2021/12/29 07:30:14;;;;;;;3.97;2.67;;;7.40;99.90;;;8.18;100.00;97235.75;5204235;28;20198;-65
2021/12/29 07:32:47;;;;;;;5.80;2.93;;;7.40;99.90;;;8.16;100.00;97242.44;5199084;28;20222;-64
2021/12/29 07:35:21;;;;;;;2.97;2.73;;;7.40;99.90;;;8.10;100.00;97248.94;5203842;28;20232;-65
2021/12/29 07:37:54;;;;;;;6.40;3.07;;;7.40;99.90;;;8.10;100.00;97248.94;5203548;28;20198;-64
2021/12/29 07:40:27;;;;;;;5.07;3.00;;;7.50;99.90;;;8.11;100.00;97248.13;5203412;28;20662;-64
2021/12/29 07:43:00;;;;;;;7.50;3.23;;;7.50;99.90;;;8.13;100.00;97245.69;5203264;28;20194;-63
2021/12/29 07:45:36;;;;;;;4.67;3.17;;;7.50;99.90;;;8.28;100.00;97232.94;5202144;28;20222;-63
2021/12/29 07:48:10;;;;;;;9.40;7.77;;;7.50;99.90;;;8.36;100.00;97236.78;5200542;28;20226;-64
2021/12/29 07:50:43;;;;;;;5.70;4.70;;;7.50;99.90;;;8.27;100.00;97251.53;5199616;28;20206;-64
2021/12/29 07:53:16;;;;;;;4.17;3.37;;;7.50;99.90;;;8.17;100.00;97250.16;5203581;28;20706;-64
2021/12/29 07:55:49;;;;;;;4.33;3.90;;;7.50;99.90;;;8.17;100.00;97245.06;5202496;28;20217;-65
2021/12/29 07:58:23;;;;;;;4.10;3.10;;;7.50;99.90;;;8.31;100.00;97238.19;5199842;28;20233;-63
2021/12/29 08:00:57;;;;;;;4.97;2.80;;;7.50;99.90;;;8.36;100.00;97244.41;5202740;28;20581;-63
2021/12/29 08:03:31;;;;;;;4.88;2.80;;;7.50;99.90;;;8.29;100.00;97263.56;5200863;28;20221;-64
2021/12/29 08:06:04;;;;;;;2.97;2.72;;;7.60;99.90;;;8.30;100.00;97267.00;5202387;28;20234;-63
2021/12/29 08:08:37;;;;;;;3.60;3.33;;;7.60;99.90;;;8.33;100.00;97269.72;5201869;28;20205;-64
2021/12/29 08:11:11;;;;;;;3.47;2.60;;;7.50;99.90;;;8.35;100.00;97261.38;5203526;28;20210;-66
2021/12/29 08:13:44;;;;;;;5.53;2.80;;;7.50;99.90;;;8.36;100.00;97274.97;5202623;28;20217;-66
2021/12/29 08:16:19;;;;;;;2.80;2.60;;;7.50;99.90;;;8.36;100.00;97277.53;5202347;28;20232;-64
2021/12/29 08:18:52;;;;;;;4.13;2.67;;;7.50;99.90;;;8.29;100.00;97277.94;5202008;28;20213;-63
2021/12/29 08:21:25;;;;;;;5.43;2.53;;;7.50;99.90;;;8.27;100.00;97280.44;5202621;28;20202;-64
2021/12/29 08:23:58;;;;;;;2.97;2.65;;;7.60;99.90;;;8.31;100.00;97284.03;5202969;28;20208;-63
2021/12/29 08:26:31;;;;;;;3.05;2.75;;;7.60;99.90;;;8.32;100.00;97295.94;5201999;28;20597;-63
2021/12/29 08:29:04;;;;;;;3.40;2.55;;;7.60;99.90;;;8.29;100.00;97295.78;5200595;28;20206;-64
2021/12/29 08:31:39;;;;;;;3.83;3.20;;;7.60;99.90;;;8.40;100.00;97299.84;5203418;28;20206;-65
2021/12/29 08:34:12;;;;;;;4.60;3.70;;;7.60;99.90;;;8.40;100.00;97302.38;5201352;28;20232;-65
2021/12/29 08:36:45;;;;;;;5.93;3.65;;;7.60;99.90;;;8.46;100.00;97299.31;5201461;28;20229;-64
2021/12/29 08:39:19;;;;;;;3.70;3.03;;;7.60;99.90;;;8.47;100.00;97293.41;5202187;28;20202;-66
2021/12/29 08:41:53;;;;;;;5.43;3.53;;;7.60;99.90;;;8.48;100.00;97296.06;5203396;28;20244;-64
2021/12/29 08:44:26;;;;;;;3.65;3.35;;;7.70;99.90;;;8.46;100.00;97295.09;5202792;28;20202;-67
2021/12/29 08:47:00;;;;;;;4.13;3.78;;;7.70;99.90;;;8.50;100.00;97297.03;5203594;28;20606;-63
2021/12/29 08:49:33;;;;;;;5.70;3.83;;;7.70;99.90;;;8.50;100.00;97302.13;5201845;28;20205;-63
2021/12/29 08:52:07;;;;;;;3.83;3.47;;;7.60;99.90;;;8.47;100.00;97291.75;5202290;28;20194;-62
2021/12/29 08:54:40;;;;;;;4.30;2.95;;;7.70;99.90;;;8.44;100.00;97296.69;5200191;28;20226;-62
2021/12/29 08:57:13;;;;;;;6.03;2.67;;;7.70;99.90;;;8.50;100.00;97294.47;5202890;28;20685;-63
2021/12/29 08:59:47;;;;;;;3.55;2.58;;;7.70;99.90;;;8.47;100.00;97296.84;5200803;28;20593;-62
2021/12/29 09:02:21;;;;;;;3.35;2.58;;;7.70;99.90;;;8.51;100.00;97292.81;5198969;28;20227;-63
2021/12/29 09:04:54;;;;;;;4.65;3.15;;;7.70;99.90;;;8.61;100.00;97294.19;5195922;28;20668;-63
2021/12/29 09:07:27;;;;;;;3.70;2.72;;;7.80;99.90;;;8.63;100.00;97296.03;5197620;28;20204;-64
2021/12/29 09:10:03;;;;;;;4.55;3.20;;;7.80;99.90;;;8.61;100.00;97305.25;5199254;28;20197;-63
2021/12/29 09:12:37;;;;;;;2.92;2.67;;;7.80;99.90;;;8.56;100.00;97307.56;5198825;28;20210;-63
2021/12/29 09:15:10;;;;;;;3.92;2.90;;;7.90;99.90;;;8.63;100.00;97298.56;5200729;28;20228;-62
2021/12/29 09:17:45;;;;;;;2.72;2.50;;;7.90;99.90;;;8.69;100.00;97298.91;5200016;28;20962;-62
2021/12/29 09:20:27;;;;;;;4.32;3.03;;;8.00;99.90;;;8.79;100.00;97295.22;5199670;28;20393;-64
2021/12/29 09:23:04;;;;;;;4.82;3.08;;;7.90;99.90;;;8.84;100.00;97295.44;5197149;28;20198;-64
2021/12/29 09:25:43;;;;;;;3.95;2.75;;;8.00;99.90;;;8.85;100.00;97289.56;5199698;28;20221;-66
2021/12/29 09:28:19;;;;;;;3.95;3.25;;;8.00;99.90;;;8.82;100.00;97310.66;5198813;28;20288;-68
2021/12/29 09:30:52;;;;;;;3.35;3.05;;;8.00;99.90;;;8.87;100.00;97308.34;5201078;28;20197;-64
2021/12/29 09:33:27;;;;;;;3.90;2.72;;;8.10;99.90;;;8.90;100.00;97319.59;5201304;28;20202;-63
2021/12/29 09:36:02;;;;;;;3.53;3.17;;;8.10;99.90;;;8.98;100.00;97320.88;5201340;28;20217;-62
2021/12/29 09:38:38;;;;;;;3.95;2.75;;;8.20;99.90;;;9.03;100.00;97322.00;5201326;28;20222;-67
2021/12/29 09:41:15;;;;;;;4.45;2.92;;;8.10;99.90;;;9.00;100.00;97326.94;5201150;28;20727;-64
2021/12/29 09:43:49;;;;;;;4.07;2.75;;;8.10;99.90;;;9.07;100.00;97332.38;5200558;28;20431;-63
2021/12/29 09:46:22;;;;;;;2.72;2.53;;;8.20;99.90;;;9.00;100.00;97316.75;5201829;28;20237;-64
2021/12/29 09:48:59;;;;;;;2.33;2.13;;;8.20;99.90;;;8.98;100.00;97325.97;5200725;28;20197;-64
2021/12/29 09:51:33;;;;;;;2.92;2.53;;;8.20;99.90;;;9.02;100.00;97325.38;5199612;28;20683;-62
2021/12/29 09:54:06;;;;;;;5.18;2.70;;;8.20;99.90;;;8.97;100.00;97331.00;5199367;28;20616;-63
2021/12/29 09:56:39;;;;;;;2.70;2.35;;;8.10;99.90;;;8.89;100.00;97334.81;5201145;28;20229;-64
2021/12/29 09:59:12;;;;;;;2.47;2.38;;;8.00;99.90;;;9.00;100.00;97334.59;5201689;28;20214;-63
2021/12/29 10:01:45;;;;;;;2.65;2.40;;;8.00;99.90;;;9.01;100.00;97338.91;5198145;28;20216;-63
2021/12/29 10:04:20;;;;;;;3.33;2.55;;;8.00;99.90;;;9.00;100.00;97347.34;5197949;28;20206;-67
2021/12/29 10:06:54;;;;;;;2.80;2.60;;;8.00;99.90;;;8.91;100.00;97341.75;5197208;28;20225;-65
2021/12/29 10:09:27;;;;;;;5.43;3.08;;;8.00;99.90;;;8.96;100.00;97345.44;5199094;28;20233;-65
2021/12/29 10:12:08;;;;;;;3.28;3.08;;;8.10;99.90;;;9.10;100.00;97346.19;5200424;28;20202;-66
2021/12/29 10:14:41;;;;;;;4.53;3.40;;;8.10;99.90;;;9.15;100.00;97344.72;5199755;28;20244;-66
2021/12/29 10:17:15;;;;;;;3.28;2.97;;;8.20;99.90;;;9.15;100.00;97341.31;5201010;28;20226;-66
2021/12/29 10:19:49;;;;;;;5.00;3.00;;;8.20;99.90;;;9.21;100.00;97339.09;5201485;28;20205;-66
2021/12/29 10:22:23;;;;;;;2.90;2.67;;;8.20;99.90;;;9.24;100.00;97346.91;5199713;28;20201;-66
2021/12/29 10:25:09;;;;;;;4.70;2.80;;;8.30;99.90;;;9.23;100.00;97347.72;5199580;28;20197;-66
2021/12/29 10:27:43;;;;;;;5.07;3.58;;;8.40;99.90;;;9.28;100.00;97338.63;5199566;28;20667;-67
2021/12/29 10:30:23;;;;;;;3.75;2.72;;;8.30;99.90;;;9.35;100.00;97337.28;5196299;28;20581;-65
2021/12/29 10:32:59;;;;;;;4.93;3.33;;;8.40;99.90;;;9.37;100.00;97343.34;5199541;28;20197;-67
2021/12/29 10:35:33;;;;;;;3.85;2.90;;;8.40;99.90;;;9.45;100.00;97335.31;5200074;28;20230;-67
2021/12/29 10:38:15;;;;;;;3.63;2.90;;;8.50;99.90;;;9.61;100.00;97333.53;5201496;28;20683;-67
2021/12/29 10:40:49;;;;;;;3.97;2.80;;;8.60;99.90;;;9.68;100.00;97325.44;5196105;28;20545;-67
2021/12/29 10:43:22;;;;;;;4.38;2.95;;;8.60;99.90;;;9.79;100.00;97328.53;5199283;28;20217;-66
2021/12/29 10:45:57;;;;;;;4.90;2.97;;;8.70;99.90;;;9.81;100.00;97325.25;5201741;28;20652;-66
2021/12/29 10:48:31;;;;;;;3.28;2.80;;;8.80;99.90;;;9.87;100.00;97317.91;5200277;28;20658;-67
2021/12/29 10:51:09;;;;;;;4.30;2.90;;;8.90;99.90;;;9.97;100.00;97321.81;5198645;28;20206;-67
2021/12/29 10:53:43;;;;;;;2.95;2.80;;;9.00;99.90;;;9.98;100.00;97325.22;5199255;28;20567;-67
2021/12/29 10:56:23;;;;;;;4.28;2.60;;;8.90;99.90;;;10.00;100.00;97338.97;5201745;28;20245;-64
2021/12/29 10:58:58;;;;;;;3.50;2.60;;;8.90;99.90;;;10.05;100.00;97343.50;5197883;28;20215;-66
2021/12/29 11:01:37;;;;;;;3.35;3.05;;;8.80;99.90;;;10.06;100.00;97344.38;5201544;28;20523;-66